Time;durP1;ratioP1;P1;durP2;ratioP2;P2;SDS_P1;SDS_P2;PMS_P1;PMS_P2;Temp;Humidity;BMP_temperature;BMP_pressure;BME280_temperature;BME280_humidity;BME280_pressure;Samples;Min_cycle;Max_cycle;Signal;HPM_P1;HPM_P2
2023/04/01 00:00:05;;;;;;;9.20;1.98;;;;;;;;;;5038602;28;20032;-47
2023/04/01 00:02:30;;;;;;;10.38;2.53;;;;;;;;;;5043808;28;20043;-43
2023/04/01 00:04:56;;;;;;;12.95;3.05;;;;;;;;;;5040941;28;20020;-44
2023/04/01 00:07:22;;;;;;;13.77;2.30;;;;;;;;;;5039019;28;20056;-44
2023/04/01 00:09:47;;;;;;;7.22;3.08;;;;;;;;;;5038751;28;20100;-43
2023/04/01 00:12:12;;;;;;;10.18;2.22;;;;;;;;;;5037356;28;20049;-43
2023/04/01 00:14:39;;;;;;;14.82;3.00;;;;;;;;;;5043375;28;20390;-41
2023/04/01 00:17:05;;;;;;;9.75;2.75;;;;;;;;;;5039761;28;20042;-41
2023/04/01 00:19:32;;;;;;;11.88;2.45;;;;;;;;;;5039979;28;20108;-41
2023/04/01 00:21:57;;;;;;;9.77;2.35;;;;;;;;;;5034408;28;20076;-42
2023/04/01 00:24:24;;;;;;;11.93;2.55;;;;;;;;;;5039122;28;20052;-41
2023/04/01 00:26:50;;;;;;;14.63;2.85;;;;;;;;;;5042416;28;20062;-43
2023/04/01 00:29:15;;;;;;;12.13;2.50;;;;;;;;;;5037596;28;20032;-41
2023/04/01 00:31:41;;;;;;;11.10;2.60;;;;;;;;;;5038569;28;20059;-42
2023/04/01 00:34:06;;;;;;;10.77;2.40;;;;;;;;;;5040376;28;20159;-41
2023/04/01 00:36:31;;;;;;;14.52;2.83;;;;;;;;;;5041754;28;20033;-44
2023/04/01 00:38:58;;;;;;;12.68;2.55;;;;;;;;;;5038052;28;20036;-41
2023/04/01 00:41:25;;;;;;;8.75;2.65;;;;;;;;;;5040906;28;20183;-44
2023/04/01 00:43:52;;;;;;;11.77;2.42;;;;;;;;;;5040613;28;20029;-39
2023/04/01 00:46:18;;;;;;;11.23;3.10;;;;;;;;;;5043203;28;20033;-43
2023/04/01 00:48:55;;;;;;;8.60;2.42;;;;;;;;;;5041030;28;20009;-41
2023/04/01 00:51:25;;;;;;;8.43;2.70;;;;;;;;;;5040527;28;20493;-40
2023/04/01 00:53:53;;;;;;;11.38;2.80;;;;;;;;;;5042275;28;20025;-42
2023/04/01 00:56:30;;;;;;;9.23;2.92;;;;;;;;;;5044976;28;20201;-45
2023/04/01 00:59:08;;;;;;;14.07;2.63;;;;;;;;;;5043917;28;20053;-40
2023/04/01 01:01:35;;;;;;;9.20;2.58;;;;;;;;;;5047241;28;20056;-41
2023/04/01 01:04:02;;;;;;;13.85;2.75;;;;;;;;;;5047677;28;20603;-40
2023/04/01 01:06:27;;;;;;;9.32;2.42;;;;;;;;;;5045102;28;20041;-44
2023/04/01 01:09:21;;;;;;;13.68;2.67;;;;;;;;;;5041681;28;20038;-41
2023/04/01 01:12:18;;;;;;;11.30;2.45;;;;;;;;;;5042822;28;20046;-40
2023/04/01 01:15:00;;;;;;;8.93;2.35;;;;;;;;;;5046719;28;20041;-42
2023/04/01 01:17:37;;;;;;;13.32;2.60;;;;;;;;;;5064373;28;20040;-45
2023/04/01 01:20:24;;;;;;;11.75;2.35;;;;;;;;;;5064749;28;20057;-41
2023/04/01 01:23:18;;;;;;;15.02;3.15;;;;;;;;;;5062156;28;20050;-40
2023/04/01 01:26:26;;;;;;;15.23;2.78;;;;;;;;;;5065502;28;20117;-41
2023/04/01 01:29:12;;;;;;;8.00;1.90;;;;;;;;;;5061418;28;20428;-41
2023/04/01 01:32:05;;;;;;;15.18;2.92;;;;;;;;;;5065647;28;20501;-41
2023/04/01 01:34:57;;;;;;;13.85;2.63;;;;;;;;;;5066361;28;20028;-40
2023/04/01 01:37:27;;;;;;;12.07;2.40;;;;;;;;;;5046522;28;20065;-43
2023/04/01 01:39:58;;;;;;;12.05;2.72;;;;;;;;;;5044558;28;20036;-42
2023/04/01 01:42:26;;;;;;;8.52;2.65;;;;;;;;;;5064840;28;20046;-41
2023/04/01 01:44:52;;;;;;;11.30;2.90;;;;;;;;;;5060203;28;20059;-42
2023/04/01 01:47:20;;;;;;;11.57;2.25;;;;;;;;;;5062297;28;20037;-42
2023/04/01 01:49:46;;;;;;;13.02;2.67;;;;;;;;;;5059645;28;20024;-44
2023/04/01 01:52:13;;;;;;;11.68;2.53;;;;;;;;;;5064648;28;20040;-42
2023/04/01 01:54:53;;;;;;;8.15;2.05;;;;;;;;;;5063759;28;20036;-40
2023/04/01 01:57:29;;;;;;;10.45;2.38;;;;;;;;;;5060969;28;20063;-49
2023/04/01 02:00:00;;;;;;;19.52;3.25;;;;;;;;;;5060442;28;20516;-41
2023/04/01 02:02:27;;;;;;;10.48;2.75;;;;;;;;;;5041437;28;20048;-44
2023/04/01 02:04:53;;;;;;;12.75;2.85;;;;;;;;;;5045749;28;20470;-42
2023/04/01 02:07:28;;;;;;;9.02;2.13;;;;;;;;;;5046472;28;20558;-45
2023/04/01 02:09:54;;;;;;;10.65;2.55;;;;;;;;;;5046929;28;20060;-45
2023/04/01 02:12:22;;;;;;;12.43;2.75;;;;;;;;;;5044568;28;20493;-46
2023/04/01 02:14:47;;;;;;;14.48;2.70;;;;;;;;;;5047479;28;20079;-41
2023/04/01 02:17:21;;;;;;;12.07;2.63;;;;;;;;;;5047912;28;20545;-40
2023/04/01 02:19:54;;;;;;;12.02;2.80;;;;;;;;;;5045754;28;20028;-40
2023/04/01 02:22:26;;;;;;;14.27;2.40;;;;;;;;;;5051485;28;20442;-41
2023/04/01 02:24:59;;;;;;;7.95;2.25;;;;;;;;;;5054178;28;20037;-43
2023/04/01 02:27:25;;;;;;;12.32;2.15;;;;;;;;;;5064766;28;20044;-46
2023/04/01 02:29:51;;;;;;;10.70;2.58;;;;;;;;;;5066667;28;20074;-43
2023/04/01 02:32:19;;;;;;;10.50;2.47;;;;;;;;;;5045357;28;20041;-49
2023/04/01 02:34:45;;;;;;;22.98;2.58;;;;;;;;;;5042974;28;20033;-50
2023/04/01 02:37:12;;;;;;;10.15;2.38;;;;;;;;;;5041866;28;20034;-44
2023/04/01 02:39:37;;;;;;;14.10;2.85;;;;;;;;;;5043190;28;20045;-46
2023/04/01 02:42:02;;;;;;;14.82;2.53;;;;;;;;;;5045001;28;20494;-46
2023/04/01 02:44:28;;;;;;;11.32;2.85;;;;;;;;;;5044755;28;20032;-44
2023/04/01 02:46:53;;;;;;;10.02;3.05;;;;;;;;;;5042152;28;20041;-46
2023/04/01 02:49:19;;;;;;;12.95;3.08;;;;;;;;;;5046552;28;20029;-45
2023/04/01 02:51:44;;;;;;;16.85;2.90;;;;;;;;;;5051883;28;20045;-45
2023/04/01 02:54:10;;;;;;;15.23;3.67;;;;;;;;;;5060819;28;20151;-46
2023/04/01 02:56:35;;;;;;;7.43;2.15;;;;;;;;;;5062266;28;20045;-47
2023/04/01 02:59:00;;;;;;;16.77;2.50;;;;;;;;;;5060500;28;20119;-45
2023/04/01 03:01:26;;;;;;;13.75;2.78;;;;;;;;;;5065860;28;20493;-45
2023/04/01 03:03:51;;;;;;;11.48;2.58;;;;;;;;;;5065383;28;20115;-48
2023/04/01 03:06:17;;;;;;;8.02;2.28;;;;;;;;;;5053646;28;20098;-41
2023/04/01 03:08:43;;;;;;;12.07;2.75;;;;;;;;;;5051240;28;20631;-45
2023/04/01 03:11:10;;;;;;;13.05;2.45;;;;;;;;;;5054935;28;20566;-40
2023/04/01 03:13:36;;;;;;;11.35;3.47;;;;;;;;;;5048210;28;20481;-43
2023/04/01 03:16:01;;;;;;;11.40;2.83;;;;;;;;;;5058116;28;20056;-43
2023/04/01 03:18:26;;;;;;;12.88;3.00;;;;;;;;;;5065481;28;20032;-41
2023/04/01 03:20:52;;;;;;;14.10;3.22;;;;;;;;;;5061211;28;20044;-45
2023/04/01 03:23:19;;;;;;;18.25;3.22;;;;;;;;;;5059540;28;20032;-46
2023/04/01 03:25:45;;;;;;;9.52;2.58;;;;;;;;;;5062135;28;20190;-45
2023/04/01 03:28:10;;;;;;;19.27;3.38;;;;;;;;;;5064037;28;20099;-48
2023/04/01 03:30:36;;;;;;;10.30;2.33;;;;;;;;;;5057579;28;20040;-40
2023/04/01 03:33:02;;;;;;;11.27;2.50;;;;;;;;;;5059441;28;20028;-43
2023/04/01 03:35:27;;;;;;;12.20;2.65;;;;;;;;;;5058528;28;20563;-42
2023/04/01 03:37:54;;;;;;;11.40;3.30;;;;;;;;;;5063807;28;20150;-41
2023/04/01 03:40:20;;;;;;;16.52;3.20;;;;;;;;;;5061686;28;21570;-44
2023/04/01 03:42:45;;;;;;;17.27;3.30;;;;;;;;;;5060258;28;20556;-41
2023/04/01 03:45:11;;;;;;;14.82;3.60;;;;;;;;;;5059150;28;20519;-45
2023/04/01 03:47:37;;;;;;;16.55;3.15;;;;;;;;;;5059000;28;20481;-46
2023/04/01 03:50:04;;;;;;;18.63;3.42;;;;;;;;;;5061686;28;20508;-42
2023/04/01 03:52:29;;;;;;;20.65;3.15;;;;;;;;;;5062575;28;20031;-43
2023/04/01 03:54:55;;;;;;;14.80;3.03;;;;;;;;;;5063505;28;20024;-46
2023/04/01 03:57:20;;;;;;;13.27;3.08;;;;;;;;;;5059185;28;20048;-47
2023/04/01 03:59:46;;;;;;;11.50;2.60;;;;;;;;;;5061851;28;20040;-45
2023/04/01 04:02:11;;;;;;;12.20;3.10;;;;;;;;;;5055391;28;20040;-46
2023/04/01 04:04:36;;;;;;;15.93;3.20;;;;;;;;;;5059665;28;20021;-42
2023/04/01 04:07:02;;;;;;;18.75;3.03;;;;;;;;;;5064311;28;20097;-47
2023/04/01 04:09:29;;;;;;;12.60;2.78;;;;;;;;;;5060656;28;20037;-49
2023/04/01 04:11:55;;;;;;;12.10;2.55;;;;;;;;;;5057992;28;20047;-46
2023/04/01 04:14:20;;;;;;;15.65;3.25;;;;;;;;;;5061758;28;20393;-45
2023/04/01 04:16:45;;;;;;;14.52;3.10;;;;;;;;;;5058419;28;20101;-42
2023/04/01 04:19:11;;;;;;;14.88;3.15;;;;;;;;;;5059210;28;20397;-45
2023/04/01 04:21:36;;;;;;;13.73;3.45;;;;;;;;;;5061012;28;20088;-49
2023/04/01 04:24:02;;;;;;;15.07;2.88;;;;;;;;;;5058222;28;20020;-47
2023/04/01 04:26:27;;;;;;;14.88;3.65;;;;;;;;;;5063813;28;20032;-42
2023/04/01 04:28:54;;;;;;;15.13;3.20;;;;;;;;;;5062645;28;20052;-42
2023/04/01 04:31:21;;;;;;;11.10;3.00;;;;;;;;;;5060097;28;20047;-42
2023/04/01 04:33:47;;;;;;;14.10;3.08;;;;;;;;;;5063518;28;20489;-42
2023/04/01 04:36:12;;;;;;;21.23;5.78;;;;;;;;;;5061557;28;20047;-41
2023/04/01 04:38:38;;;;;;;15.52;2.75;;;;;;;;;;5058545;28;20481;-45
2023/04/01 04:41:07;;;;;;;16.48;3.88;;;;;;;;;;5057392;28;20570;-47
2023/04/01 04:43:33;;;;;;;18.10;3.83;;;;;;;;;;5063262;28;20448;-45
2023/04/01 04:45:58;;;;;;;22.80;3.80;;;;;;;;;;5059413;28;20044;-41
2023/04/01 04:48:23;;;;;;;16.98;3.08;;;;;;;;;;5058590;28;20388;-42
2023/04/01 04:50:50;;;;;;;24.65;3.88;;;;;;;;;;5060039;28;20041;-46
2023/04/01 04:53:19;;;;;;;19.63;3.25;;;;;;;;;;5062975;28;20081;-50
2023/04/01 04:55:49;;;;;;;15.82;3.67;;;;;;;;;;5057033;28;20041;-42
2023/04/01 04:58:15;;;;;;;17.17;3.03;;;;;;;;;;5062739;28;20036;-45
2023/04/01 05:00:41;;;;;;;10.88;3.33;;;;;;;;;;5057656;28;20045;-42
2023/04/01 05:03:07;;;;;;;16.13;3.60;;;;;;;;;;5059979;28;20385;-47
2023/04/01 05:05:32;;;;;;;11.80;2.88;;;;;;;;;;5056906;28;20131;-41
2023/04/01 05:07:58;;;;;;;16.40;3.15;;;;;;;;;;5060111;28;20043;-45
2023/04/01 05:10:23;;;;;;;15.30;3.33;;;;;;;;;;5059183;28;20045;-43
2023/04/01 05:12:48;;;;;;;9.52;2.92;;;;;;;;;;5058261;28;20446;-42
2023/04/01 05:15:14;;;;;;;16.90;3.85;;;;;;;;;;5053152;28;20033;-44
2023/04/01 05:17:40;;;;;;;20.30;3.63;;;;;;;;;;5059883;28;20017;-48
2023/04/01 05:20:06;;;;;;;18.27;3.60;;;;;;;;;;5057469;28;20040;-44
2023/04/01 05:22:32;;;;;;;14.80;2.75;;;;;;;;;;5060186;28;20066;-45
2023/04/01 05:24:57;;;;;;;16.42;3.08;;;;;;;;;;5061496;28;20028;-43
2023/04/01 05:27:22;;;;;;;16.00;3.13;;;;;;;;;;5057599;28;20036;-43
2023/04/01 05:29:48;;;;;;;17.45;3.65;;;;;;;;;;5056919;28;20169;-42
2023/04/01 05:32:13;;;;;;;14.45;3.83;;;;;;;;;;5060712;28;20520;-49
2023/04/01 05:34:39;;;;;;;18.63;4.38;;;;;;;;;;5061304;28;20059;-41
2023/04/01 05:37:04;;;;;;;21.52;3.60;;;;;;;;;;5063733;28;20044;-44
2023/04/01 05:39:29;;;;;;;25.95;4.10;;;;;;;;;;5063450;28;20036;-45
2023/04/01 05:41:55;;;;;;;16.52;3.55;;;;;;;;;;5048043;28;20101;-47
2023/04/01 05:44:20;;;;;;;16.52;3.33;;;;;;;;;;5040586;28;20321;-44
2023/04/01 05:46:46;;;;;;;13.85;3.28;;;;;;;;;;5036449;28;20046;-47
2023/04/01 05:49:11;;;;;;;13.63;3.35;;;;;;;;;;5045345;28;20068;-44
2023/04/01 05:51:36;;;;;;;21.45;4.00;;;;;;;;;;5042834;28;20037;-49
2023/04/01 05:54:05;;;;;;;15.93;3.40;;;;;;;;;;5038666;28;20052;-45
2023/04/01 05:56:30;;;;;;;15.98;3.80;;;;;;;;;;5048832;28;20075;-49
2023/04/01 05:58:55;;;;;;;11.40;2.80;;;;;;;;;;5046808;28;20060;-47
2023/04/01 06:01:21;;;;;;;17.35;4.22;;;;;;;;;;5047501;28;20094;-41
2023/04/01 06:03:46;;;;;;;14.68;3.42;;;;;;;;;;5044813;28;20024;-49
2023/04/01 06:06:18;;;;;;;16.23;3.20;;;;;;;;;;5040630;28;20045;-45
2023/04/01 06:08:44;;;;;;;;;;;;;;;;;;5042038;28;20037;-43
2023/04/01 06:11:28;;;;;;;11.95;3.42;;;;;;;;;;5037854;28;19921;-45
2023/04/01 06:14:16;;;;;;;21.80;4.15;;;;;;;;;;5044948;28;20076;-44
2023/04/01 06:17:00;;;;;;;23.75;4.43;;;;;;;;;;5045186;28;20103;-43
2023/04/01 06:19:47;;;;;;;14.77;3.17;;;;;;;;;;5039432;28;20029;-45
2023/04/01 06:22:39;;;;;;;11.30;2.60;;;;;;;;;;5047420;28;20387;-44
2023/04/01 06:25:17;;;;;;;14.95;3.30;;;;;;;;;;5045960;28;20662;-46
2023/04/01 06:27:54;;;;;;;17.15;3.10;;;;;;;;;;5047408;28;20017;-45
2023/04/01 06:30:32;;;;;;;11.75;3.42;;;;;;;;;;5047531;28;20045;-48
2023/04/01 06:33:18;;;;;;;10.13;2.65;;;;;;;;;;5048490;28;20354;-47
2023/04/01 06:36:06;;;;;;;14.77;2.83;;;;;;;;;;5047912;28;20033;-44
2023/04/01 06:38:59;;;;;;;9.77;3.05;;;;;;;;;;5043429;28;20041;-41
2023/04/01 06:42:00;;;;;;;8.15;2.65;;;;;;;;;;5043999;28;20049;-43
2023/04/01 06:44:38;;;;;;;11.10;2.40;;;;;;;;;;5039323;28;20508;-41
2023/04/01 06:47:12;;;;;;;13.10;2.55;;;;;;;;;;5044921;28;20123;-40
2023/04/01 06:49:47;;;;;;;8.63;3.03;;;;;;;;;;5045782;28;20521;-42
2023/04/01 06:52:25;;;;;;;15.00;2.50;;;;;;;;;;5045874;28;20071;-41
2023/04/01 06:55:15;;;;;;;12.57;3.03;;;;;;;;;;5046622;28;20865;-42
2023/04/01 06:57:49;;;;;;;13.07;2.65;;;;;;;;;;5041303;28;20570;-42
2023/04/01 07:00:16;;;;;;;14.80;2.90;;;;;;;;;;5041230;28;20041;-43
2023/04/01 07:02:53;;;;;;;13.88;2.50;;;;;;;;;;5045571;28;20021;-41
2023/04/01 07:05:19;;;;;;;11.38;3.08;;;;;;;;;;5040474;28;20033;-42
2023/04/01 07:07:48;;;;;;;20.55;3.05;;;;;;;;;;5040606;28;20025;-47
2023/04/01 07:10:23;;;;;;;14.00;3.00;;;;;;;;;;5045193;28;20035;-44
2023/04/01 07:13:02;;;;;;;14.73;3.03;;;;;;;;;;5045649;28;20044;-42
2023/04/01 07:15:35;;;;;;;11.35;2.80;;;;;;;;;;5048783;28;20123;-43
2023/04/01 07:18:05;;;;;;;15.02;3.85;;;;;;;;;;5056079;28;20025;-41
2023/04/01 07:20:32;;;;;;;12.65;2.72;;;;;;;;;;5058069;28;20072;-40
2023/04/01 07:23:05;;;;;;;12.40;2.92;;;;;;;;;;5043964;28;20045;-45
2023/04/01 07:25:35;;;;;;;12.15;2.90;;;;;;;;;;5043116;28;20041;-41
2023/04/01 07:28:05;;;;;;;12.45;2.90;;;;;;;;;;5043508;28;20068;-41
2023/04/01 07:30:56;;;;;;;12.50;2.85;;;;;;;;;;5049478;28;20040;-44
2023/04/01 07:33:43;;;;;;;8.30;2.53;;;;;;;;;;5057597;28;20047;-43
2023/04/01 07:36:20;;;;;;;13.18;2.90;;;;;;;;;;5056912;28;20454;-41
2023/04/01 07:38:57;;;;;;;11.68;3.03;;;;;;;;;;5056388;28;20101;-43
2023/04/01 07:41:44;;;;;;;12.68;3.40;;;;;;;;;;5055949;28;20041;-42
2023/04/01 07:44:24;;;;;;;13.80;3.30;;;;;;;;;;5056845;28;20133;-41
2023/04/01 07:47:03;;;;;;;11.00;3.05;;;;;;;;;;5055450;28;20107;-41
2023/04/01 07:49:45;;;;;;;17.08;3.72;;;;;;;;;;5056405;28;20497;-41
2023/04/01 07:52:46;;;;;;;11.85;2.70;;;;;;;;;;5053263;28;20078;-41
2023/04/01 07:55:32;;;;;;;18.52;4.50;;;;;;;;;;5030438;28;20073;-42
2023/04/01 07:58:21;;;;;;;13.43;2.38;;;;;;;;;;5018782;28;20025;-42
2023/04/01 08:01:12;;;;;;;17.50;2.63;;;;;;;;;;5019901;28;20045;-41
2023/04/01 08:04:00;;;;;;;6.85;2.50;;;;;;;;;;5003290;28;20088;-41
2023/04/01 08:06:47;;;;;;;11.32;2.47;;;;;;;;;;5011711;28;20498;-40
2023/04/01 08:09:31;;;;;;;12.18;2.47;;;;;;;;;;5039714;28;20025;-42
2023/04/01 08:12:37;;;;;;;13.63;2.67;;;;;;;;;;5032117;28;20048;-41
2023/04/01 08:15:35;;;;;;;16.90;3.05;;;;;;;;;;5036438;28;20041;-41
2023/04/01 08:18:11;;;;;;;10.98;3.03;;;;;;;;;;4994640;28;20100;-41
2023/04/01 08:20:45;;;;;;;17.50;2.92;;;;;;;;;;4998418;28;20041;-41
2023/04/01 08:23:15;;;;;;;8.43;2.25;;;;;;;;;;4997959;28;20045;-41
2023/04/01 08:26:10;;;;;;;12.93;2.17;;;;;;;;;;5001462;28;21025;-40
2023/04/01 08:28:44;;;;;;;15.40;2.80;;;;;;;;;;5002485;28;20041;-42
2023/04/01 08:31:19;;;;;;;7.28;2.72;;;;;;;;;;5001325;28;20140;-44
2023/04/01 08:33:47;;;;;;;12.38;2.60;;;;;;;;;;5016375;28;20501;-41
2023/04/01 08:36:20;;;;;;;8.10;2.10;;;;;;;;;;5019309;28;20144;-44
2023/04/01 08:38:48;;;;;;;7.45;2.22;;;;;;;;;;5020859;28;20065;-41
2023/04/01 08:41:19;;;;;;;10.13;2.50;;;;;;;;;;5017210;28;20048;-41
2023/04/01 08:44:22;;;;;;;8.68;2.35;;;;;;;;;;5022993;28;20232;-43
2023/04/01 08:47:14;;;;;;;8.55;3.00;;;;;;;;;;5018543;28;20275;-44
2023/04/01 08:50:07;;;;;;;10.57;2.10;;;;;;;;;;5018633;28;20040;-41
2023/04/01 08:53:03;;;;;;;8.90;2.45;;;;;;;;;;5021599;28;20523;-45
2023/04/01 08:56:18;;;;;;;6.57;1.98;;;;;;;;;;5042018;28;20047;-43
2023/04/01 08:59:15;;;;;;;8.45;2.38;;;;;;;;;;5043624;28;20451;-41
2023/04/01 09:02:04;;;;;;;10.18;2.88;;;;;;;;;;5052956;28;20052;-44
2023/04/01 09:04:59;;;;;;;10.18;2.22;;;;;;;;;;5063812;28;20056;-42
2023/04/01 09:07:42;;;;;;;7.13;2.38;;;;;;;;;;5041686;28;20127;-41
2023/04/01 09:10:21;;;;;;;9.52;2.42;;;;;;;;;;5038958;28;20061;-42
2023/04/01 09:12:49;;;;;;;7.45;2.00;;;;;;;;;;5046306;28;20068;-44
2023/04/01 09:15:50;;;;;;;11.02;2.50;;;;;;;;;;5046020;28;20516;-43
2023/04/01 09:18:46;;;;;;;9.02;2.80;;;;;;;;;;5045574;28;21259;-41
2023/04/01 09:21:42;;;;;;;6.07;2.20;;;;;;;;;;5044432;28;20063;-41
2023/04/01 09:24:10;;;;;;;14.55;2.13;;;;;;;;;;5046677;28;20049;-41
2023/04/01 09:26:46;;;;;;;8.48;2.33;;;;;;;;;;5037662;28;20128;-41
2023/04/01 09:29:47;;;;;;;3.97;1.60;;;;;;;;;;5035579;28;20038;-40
2023/04/01 09:32:31;;;;;;;5.47;1.70;;;;;;;;;;5039112;28;20064;-40
2023/04/01 09:35:21;;;;;;;7.72;1.77;;;;;;;;;;5044635;28;20082;-41
2023/04/01 09:38:08;;;;;;;3.88;1.38;;;;;;;;;;5025464;28;20463;-43
2023/04/01 09:40:44;;;;;;;6.53;1.48;;;;;;;;;;5030638;28;20045;-40
2023/04/01 09:43:29;;;;;;;5.90;1.80;;;;;;;;;;5046281;28;20025;-40
2023/04/01 09:46:19;;;;;;;6.57;1.45;;;;;;;;;;5044391;28;20041;-49
2023/04/01 09:49:09;;;;;;;5.78;1.90;;;;;;;;;;5041645;28;20033;-41
2023/04/01 09:51:43;;;;;;;5.60;1.88;;;;;;;;;;5054398;28;20040;-42
2023/04/01 09:54:21;;;;;;;8.88;1.70;;;;;;;;;;5056436;28;20474;-41
2023/04/01 09:57:02;;;;;;;10.75;2.05;;;;;;;;;;5047760;28;20092;-41
2023/04/01 09:59:41;;;;;;;5.20;1.73;;;;;;;;;;5043735;28;20111;-43
2023/04/01 10:02:34;;;;;;;7.50;1.65;;;;;;;;;;5048704;28;20044;-41
2023/04/01 10:05:28;;;;;;;6.25;1.65;;;;;;;;;;5047276;28;20032;-40
2023/04/01 10:08:18;;;;;;;4.38;1.63;;;;;;;;;;5048239;28;20028;-41
2023/04/01 10:11:36;;;;;;;7.60;1.50;;;;;;;;;;5047847;28;20045;-40
2023/04/01 10:14:33;;;;;;;5.38;2.00;;;;;;;;;;4985856;28;20077;-41
2023/04/01 10:17:13;;;;;;;3.83;1.33;;;;;;;;;;4981397;28;20109;-43
2023/04/01 10:20:00;;;;;;;5.68;2.30;;;;;;;;;;4980871;28;20094;-41
2023/04/01 10:22:28;;;;;;;5.10;1.67;;;;;;;;;;5002150;28;20168;-41
2023/04/01 10:25:27;;;;;;;8.93;2.13;;;;;;;;;;5002504;28;20056;-40
2023/04/01 10:28:28;;;;;;;4.63;1.40;;;;;;;;;;5002038;28;20168;-42
2023/04/01 10:31:02;;;;;;;4.85;1.58;;;;;;;;;;5004447;28;20046;-41
2023/04/01 10:33:40;;;;;;;4.22;1.52;;;;;;;;;;5007003;28;20103;-40
2023/04/01 10:36:14;;;;;;;7.75;1.98;;;;;;;;;;5004437;28;20060;-40
2023/04/01 10:38:48;;;;;;;6.22;1.38;;;;;;;;;;5003999;28;20038;-41
2023/04/01 10:41:35;;;;;;;3.85;1.05;;;;;;;;;;5003192;28;20495;-47
2023/04/01 10:44:36;;;;;;;6.85;1.30;;;;;;;;;;5002283;28;20048;-41
2023/04/01 10:47:10;;;;;;;3.63;1.02;;;;;;;;;;5002723;28;20106;-40
2023/04/01 10:49:35;;;;;;;5.57;1.50;;;;;;;;;;5027908;28;20041;-40
2023/04/01 10:52:39;;;;;;;4.70;1.83;;;;;;;;;;5064317;28;20052;-40
2023/04/01 10:55:34;;;;;;;5.85;1.77;;;;;;;;;;5083669;28;20523;-40
2023/04/01 10:58:16;;;;;;;3.45;1.40;;;;;;;;;;5085855;28;20082;-44
2023/04/01 11:01:19;;;;;;;4.25;1.67;;;;;;;;;;5080440;28;20106;-46
2023/04/01 11:04:27;;;;;;;5.82;1.80;;;;;;;;;;5079385;28;20084;-40
2023/04/01 11:07:20;;;;;;;7.20;1.70;;;;;;;;;;5078883;28;20059;-41
2023/04/01 11:10:04;;;;;;;4.40;1.33;;;;;;;;;;5076188;28;20550;-40
2023/04/01 11:12:44;;;;;;;6.03;2.00;;;;;;;;;;5072765;28;20131;-42
2023/04/01 11:15:41;;;;;;;8.02;2.88;;;;;;;;;;5073495;28;20080;-40
2023/04/01 11:18:38;;;;;;;11.40;2.78;;;;;;;;;;5070283;28;20043;-45
2023/04/01 11:21:53;;;;;;;12.02;3.13;;;;;;;;;;5069161;28;20055;-40
2023/04/01 11:24:54;;;;;;;8.60;2.17;;;;;;;;;;4996695;28;20147;-43
2023/04/01 11:27:44;;;;;;;7.10;3.03;;;;;;;;;;4997359;28;20993;-41
2023/04/01 11:30:21;;;;;;;14.50;3.20;;;;;;;;;;5002567;28;20165;-42
2023/04/01 11:32:58;;;;;;;10.70;3.90;;;;;;;;;;4988388;28;20045;-44
2023/04/01 11:35:55;;;;;;;6.63;2.42;;;;;;;;;;4980388;28;20046;-43
2023/04/01 11:39:01;;;;;;;8.30;3.25;;;;;;;;;;4979628;28;20061;-48
2023/04/01 11:41:43;;;;;;;9.68;4.45;;;;;;;;;;4983163;28;21108;-42
2023/04/01 11:44:24;;;;;;;12.93;3.25;;;;;;;;;;4978056;28;20069;-42
2023/04/01 11:47:07;;;;;;;9.60;3.30;;;;;;;;;;4983197;28;20042;-42
2023/04/01 11:49:54;;;;;;;6.70;2.33;;;;;;;;;;4984150;28;20087;-45
2023/04/01 11:52:32;;;;;;;5.80;1.80;;;;;;;;;;4983760;28;20046;-41
2023/04/01 11:55:23;;;;;;;6.60;2.13;;;;;;;;;;4985238;28;20046;-41
2023/04/01 11:58:06;;;;;;;9.20;2.83;;;;;;;;;;4981504;28;20038;-40
2023/04/01 12:00:50;;;;;;;8.75;3.30;;;;;;;;;;5045875;28;20561;-41
2023/04/01 12:03:36;;;;;;;5.85;1.88;;;;;;;;;;5059756;28;20032;-45
2023/04/01 12:06:21;;;;;;;4.57;1.73;;;;;;;;;;5060576;28;20133;-44
2023/04/01 12:08:56;;;;;;;5.25;1.58;;;;;;;;;;5059330;28;20055;-41
2023/04/01 12:11:43;;;;;;;7.20;1.98;;;;;;;;;;5047881;28;20068;-41
2023/04/01 12:14:13;;;;;;;4.22;1.80;;;;;;;;;;5043726;28;20052;-42
2023/04/01 12:17:02;;;;;;;3.40;1.63;;;;;;;;;;5049707;28;20045;-42
2023/04/01 12:19:50;;;;;;;5.55;1.85;;;;;;;;;;5059797;28;20024;-42
2023/04/01 12:23:03;;;;;;;6.55;1.58;;;;;;;;;;5044375;28;20247;-40
2023/04/01 12:25:34;;;;;;;5.00;1.58;;;;;;;;;;5038460;28;20515;-41
2023/04/01 12:28:18;;;;;;;5.43;1.60;;;;;;;;;;5044274;28;20032;-42
2023/04/01 12:30:55;;;;;;;4.50;1.77;;;;;;;;;;5041248;28;20549;-43
2023/04/01 12:33:42;;;;;;;2.47;1.27;;;;;;;;;;5037873;28;20025;-41
2023/04/01 12:36:19;;;;;;;2.33;1.50;;;;;;;;;;5044500;28;20076;-42
2023/04/01 12:39:20;;;;;;;2.33;1.27;;;;;;;;;;5038340;28;20028;-41
2023/04/01 12:42:14;;;;;;;3.25;1.23;;;;;;;;;;5042996;28;20041;-40
2023/04/01 12:45:08;;;;;;;6.68;1.58;;;;;;;;;;5037692;28;20089;-43
2023/04/01 12:47:34;;;;;;;3.95;1.08;;;;;;;;;;5038232;28;20048;-46
2023/04/01 12:50:42;;;;;;;2.53;0.98;;;;;;;;;;5036439;28;20366;-41
2023/04/01 12:53:44;;;;;;;1.13;0.82;;;;;;;;;;5039414;28;20044;-42
2023/04/01 12:56:20;;;;;;;3.10;1.02;;;;;;;;;;5037690;28;20087;-41
2023/04/01 12:59:35;;;;;;;3.88;0.88;;;;;;;;;;5037945;28;20044;-43
2023/04/01 13:02:29;;;;;;;2.25;1.25;;;;;;;;;;5027352;28;20484;-41
2023/04/01 13:05:15;;;;;;;5.15;1.10;;;;;;;;;;4960691;28;20043;-41
2023/04/01 13:08:17;;;;;;;2.42;0.90;;;;;;;;;;4961844;28;20106;-40
2023/04/01 13:11:02;;;;;;;2.28;1.02;;;;;;;;;;4960766;28;20515;-41
2023/04/01 13:13:46;;;;;;;7.80;1.27;;;;;;;;;;4963407;28;20112;-42
2023/04/01 13:16:38;;;;;;;3.83;1.10;;;;;;;;;;4962469;28;20544;-44
2023/04/01 13:19:08;;;;;;;6.30;1.40;;;;;;;;;;4960176;28;20027;-43
2023/04/01 13:21:36;;;;;;;2.42;1.33;;;;;;;;;;4958787;28;20042;-45
2023/04/01 13:24:11;;;;;;;3.88;1.25;;;;;;;;;;4962390;28;20149;-46
2023/04/01 13:26:41;;;;;;;5.57;1.50;;;;;;;;;;4961693;28;20039;-43
2023/04/01 13:29:06;;;;;;;4.20;1.35;;;;;;;;;;4963249;28;20133;-41
2023/04/01 13:31:45;;;;;;;2.45;1.40;;;;;;;;;;4964819;28;20050;-44
2023/04/01 13:34:52;;;;;;;6.30;1.85;;;;;;;;;;4960780;28;20465;-45
2023/04/01 13:37:38;;;;;;;2.65;1.20;;;;;;;;;;4942843;28;20054;-42
2023/04/01 13:40:39;;;;;;;8.38;1.80;;;;;;;;;;4935597;28;20039;-43
2023/04/01 13:43:29;;;;;;;3.53;1.50;;;;;;;;;;5041492;28;20024;-49
2023/04/01 13:46:11;;;;;;;4.05;1.50;;;;;;;;;;5045387;28;20136;-48
2023/04/01 13:48:42;;;;;;;;;;;;;;;;;;5056227;28;20481;-47
2023/04/01 13:51:26;;;;;;;4.07;1.30;;;;;;;;;;5055625;28;20005;-41
2023/04/01 13:54:09;;;;;;;5.68;1.58;;;;;;;;;;5063063;28;20029;-41
2023/04/01 13:56:53;;;;;;;6.53;1.77;;;;;;;;;;5057126;28;20037;-43
2023/04/01 13:59:55;;;;;;;4.68;1.48;;;;;;;;;;5061672;28;20469;-41
2023/04/01 14:02:54;;;;;;;4.07;1.10;;;;;;;;;;5060786;28;20141;-42
2023/04/01 14:05:47;;;;;;;2.67;1.20;;;;;;;;;;5057955;28;20076;-42
2023/04/01 14:08:27;;;;;;;7.43;1.83;;;;;;;;;;5064667;28;20381;-41
2023/04/01 14:11:14;;;;;;;4.97;1.50;;;;;;;;;;5064024;28;20064;-41
2023/04/01 14:14:05;;;;;;;3.70;1.20;;;;;;;;;;5062919;28;20119;-42
2023/04/01 14:16:55;;;;;;;6.13;1.38;;;;;;;;;;5062544;28;20505;-41
2023/04/01 14:19:29;;;;;;;3.17;1.20;;;;;;;;;;5057926;28;20079;-47
2023/04/01 14:22:33;;;;;;;4.38;1.30;;;;;;;;;;5058847;28;20048;-42
2023/04/01 14:25:10;;;;;;;8.40;1.00;;;;;;;;;;5044674;28;20044;-41
2023/04/01 14:28:08;;;;;;;1.10;0.55;;;;;;;;;;5065222;28;20048;-42
2023/04/01 14:30:36;;;;;;;4.55;1.20;;;;;;;;;;4985095;28;20061;-41
2023/04/01 14:33:35;;;;;;;2.75;0.93;;;;;;;;;;4986413;28;20046;-41
2023/04/01 14:36:28;;;;;;;3.40;0.95;;;;;;;;;;4986703;28;20082;-42
2023/04/01 14:39:15;;;;;;;1.30;0.70;;;;;;;;;;4984279;28;20034;-41
2023/04/01 14:41:59;;;;;;;1.92;0.57;;;;;;;;;;4985916;28;20184;-41
2023/04/01 14:44:44;;;;;;;4.35;1.30;;;;;;;;;;4983641;28;21984;-41
2023/04/01 14:47:19;;;;;;;4.80;1.10;;;;;;;;;;4988191;28;20519;-41
2023/04/01 14:49:50;;;;;;;3.22;1.20;;;;;;;;;;4986118;28;20478;-41
2023/04/01 14:52:26;;;;;;;2.38;0.90;;;;;;;;;;4985885;28;20206;-41
2023/04/01 14:54:52;;;;;;;5.40;1.10;;;;;;;;;;4985744;28;20046;-41
2023/04/01 14:57:27;;;;;;;4.05;0.90;;;;;;;;;;4985566;28;20060;-41
2023/04/01 15:00:14;;;;;;;6.80;1.35;;;;;;;;;;4985286;28;20129;-42
2023/04/01 15:02:52;;;;;;;2.70;1.60;;;;;;;;;;4986498;28;20108;-41
2023/04/01 15:05:31;;;;;;;3.75;1.20;;;;;;;;;;4987789;28;20049;-41
2023/04/01 15:08:26;;;;;;;8.10;1.52;;;;;;;;;;5038699;28;20037;-42
2023/04/01 15:11:10;;;;;;;8.10;1.20;;;;;;;;;;5055852;28;20828;-41
2023/04/01 15:13:56;;;;;;;6.22;1.80;;;;;;;;;;5039816;28;20119;-41
2023/04/01 15:16:32;;;;;;;14.25;2.20;;;;;;;;;;5043771;28;20041;-40
2023/04/01 15:19:19;;;;;;;5.72;1.73;;;;;;;;;;5044099;28;20655;-41
2023/04/01 15:21:50;;;;;;;4.13;1.67;;;;;;;;;;5043681;28;20033;-41
2023/04/01 15:24:36;;;;;;;9.27;2.42;;;;;;;;;;5044096;28;20029;-41
2023/04/01 15:27:11;;;;;;;9.68;1.83;;;;;;;;;;5041608;28;20053;-43
2023/04/01 15:30:14;;;;;;;9.50;1.13;;;;;;;;;;5043387;28;20448;-41
2023/04/01 15:32:48;;;;;;;8.48;1.58;;;;;;;;;;5039492;28;20041;-46
2023/04/01 15:35:40;;;;;;;5.90;1.45;;;;;;;;;;5041454;28;20109;-41
2023/04/01 15:38:23;;;;;;;7.97;1.75;;;;;;;;;;5041893;28;22327;-41